createdAt,value
2023-03-14T00:00:24.380Z,7.68
2023-03-14T00:02:50.805Z,7.62
2023-03-14T00:05:17.241Z,7.63
2023-03-14T00:07:43.673Z,7.60
2023-03-14T00:10:10.059Z,7.63
2023-03-14T00:12:36.472Z,7.57
2023-03-14T00:15:02.921Z,7.46
2023-03-14T00:17:29.364Z,7.44
2023-03-14T00:19:55.772Z,7.29
2023-03-14T00:22:22.218Z,7.22
2023-03-14T00:24:48.671Z,7.16
2023-03-14T00:27:15.112Z,7.05
2023-03-14T00:29:41.578Z,7.05
2023-03-14T00:32:08.117Z,7.04
2023-03-14T00:34:34.552Z,6.95
2023-03-14T00:37:01.630Z,6.89
2023-03-14T00:39:28.236Z,6.96
2023-03-14T00:41:54.902Z,6.96
2023-03-14T00:44:22.408Z,6.82
2023-03-14T00:46:48.977Z,6.84
2023-03-14T00:49:15.405Z,6.82
2023-03-14T00:51:41.887Z,6.88
2023-03-14T00:54:08.799Z,6.82
2023-03-14T00:56:35.240Z,6.85
2023-03-14T00:59:01.967Z,6.77
2023-03-14T01:01:28.477Z,6.62
2023-03-14T01:03:55.134Z,6.57
2023-03-14T01:06:22.738Z,6.55
2023-03-14T01:08:49.314Z,6.65
2023-03-14T01:11:15.903Z,6.58
2023-03-14T01:13:42.339Z,6.61
2023-03-14T01:16:08.847Z,6.60
2023-03-14T01:18:35.708Z,6.62
2023-03-14T01:21:03.280Z,6.59
2023-03-14T01:23:29.902Z,6.55
2023-03-14T01:25:58.498Z,6.63
2023-03-14T01:28:25.076Z,6.55
2023-03-14T01:30:51.654Z,6.56
2023-03-14T01:33:18.233Z,6.59
2023-03-14T01:51:07.525Z,6.78
2023-03-14T01:53:34.384Z,6.84
2023-03-14T01:56:01.028Z,6.84
2023-03-14T01:58:27.615Z,6.93
2023-03-14T02:00:54.207Z,6.90
2023-03-14T02:03:20.837Z,6.91
2023-03-14T02:05:48.379Z,6.84
2023-03-14T02:08:14.955Z,6.91
2023-03-14T02:10:41.561Z,6.94
2023-03-14T02:13:07.988Z,6.99
2023-03-14T02:15:35.757Z,7.05
2023-03-14T02:18:02.197Z,6.99
2023-03-14T02:20:28.689Z,7.00
2023-03-14T02:22:55.073Z,7.04
2023-03-14T02:25:21.499Z,6.97
2023-03-14T02:27:47.914Z,7.05
2023-03-14T02:30:14.364Z,7.01
2023-03-14T02:32:40.837Z,7.00
2023-03-14T02:35:07.268Z,7.01
2023-03-14T02:37:33.674Z,6.93
2023-03-14T02:40:00.048Z,6.95
2023-03-14T02:42:26.452Z,6.96
2023-03-14T02:44:52.866Z,6.96
2023-03-14T02:47:19.280Z,6.94
2023-03-14T02:49:45.666Z,6.92
2023-03-14T02:52:12.091Z,6.91
2023-03-14T02:54:38.535Z,6.92
2023-03-14T02:57:04.908Z,6.93
2023-03-14T02:59:31.321Z,7.02
2023-03-14T03:01:57.740Z,6.98
2023-03-14T03:04:24.163Z,6.98
2023-03-14T03:06:50.541Z,6.96
2023-03-14T03:09:16.927Z,6.98
2023-03-14T03:11:43.342Z,6.93
2023-03-14T03:14:09.745Z,6.93
2023-03-14T03:16:36.184Z,6.99
2023-03-14T03:19:02.639Z,7.00
2023-03-14T03:21:29.157Z,7.00
2023-03-14T03:23:55.556Z,6.91
2023-03-14T03:26:21.955Z,6.92
2023-03-14T03:28:48.361Z,6.90
2023-03-14T03:31:14.830Z,6.89
2023-03-14T03:33:41.251Z,6.88
2023-03-14T03:36:07.661Z,6.81
2023-03-14T03:38:34.132Z,6.84
2023-03-14T03:41:00.559Z,6.91
2023-03-14T03:43:26.980Z,6.92
2023-03-14T03:45:53.417Z,6.97
2023-03-14T03:48:19.824Z,6.96
2023-03-14T03:50:46.196Z,6.89
2023-03-14T03:53:15.575Z,6.90
2023-03-14T03:55:42.095Z,6.89
2023-03-14T03:58:08.470Z,6.86
2023-03-14T04:00:34.877Z,6.87
2023-03-14T04:03:01.282Z,6.95
2023-03-14T04:05:27.810Z,6.99
2023-03-14T04:07:54.214Z,6.96
2023-03-14T04:10:20.622Z,7.01
2023-03-14T04:12:47.016Z,7.10
2023-03-14T04:15:13.432Z,7.14
2023-03-14T04:17:39.836Z,7.11
2023-03-14T04:20:06.210Z,7.06
2023-03-14T04:22:32.669Z,7.03
2023-03-14T04:24:59.222Z,7.05
2023-03-14T04:27:25.634Z,7.03
2023-03-14T04:29:52.042Z,7.07
2023-03-14T04:32:18.560Z,6.98
2023-03-14T04:34:44.998Z,7.00
2023-03-14T04:37:11.374Z,6.95
2023-03-14T04:39:37.777Z,6.93
2023-03-14T04:42:05.372Z,6.86
2023-03-14T04:44:31.812Z,6.82
2023-03-14T04:46:58.274Z,6.79
2023-03-14T04:49:24.800Z,6.79
2023-03-14T04:51:51.167Z,6.86
2023-03-14T04:54:17.573Z,6.89
2023-03-14T04:56:44.011Z,6.92
2023-03-14T04:59:10.414Z,6.83
2023-03-14T05:01:36.876Z,6.77
2023-03-14T05:04:03.325Z,6.77
2023-03-14T05:06:29.712Z,6.80
2023-03-14T05:08:56.142Z,6.82
2023-03-14T05:11:22.577Z,6.82
2023-03-14T05:13:49.136Z,6.80
2023-03-14T05:16:15.551Z,6.77
2023-03-14T05:18:41.989Z,6.80
2023-03-14T05:21:08.381Z,6.74
2023-03-14T05:23:34.783Z,6.65
2023-03-14T05:26:01.188Z,6.62
2023-03-14T05:28:27.664Z,6.59
2023-03-14T05:30:54.037Z,6.56
2023-03-14T05:33:20.490Z,6.57
2023-03-14T05:35:46.927Z,6.56
2023-03-14T05:38:13.324Z,6.56
2023-03-14T05:40:39.750Z,6.59
2023-03-14T05:43:06.168Z,6.63
2023-03-14T05:45:34.594Z,6.68
2023-03-14T05:48:02.027Z,6.68
2023-03-14T05:50:28.454Z,6.75
2023-03-14T05:52:54.860Z,6.76
2023-03-14T05:55:21.283Z,6.78
2023-03-14T05:57:47.714Z,6.79
2023-03-14T06:00:14.106Z,6.79
2023-03-14T06:02:40.523Z,6.76
2023-03-14T06:05:06.907Z,6.77
2023-03-14T06:07:33.396Z,6.79
2023-03-14T06:09:59.790Z,6.76
2023-03-14T06:12:26.206Z,6.75
2023-03-14T06:14:52.619Z,6.70
2023-03-14T06:17:19.042Z,6.65
2023-03-14T06:19:45.437Z,6.59
2023-03-14T06:22:11.827Z,6.52
2023-03-14T06:24:38.244Z,6.34
2023-03-14T06:27:04.667Z,6.24
2023-03-14T06:29:31.058Z,6.23
2023-03-14T06:31:57.460Z,6.17
2023-03-14T06:34:23.835Z,6.16
2023-03-14T06:36:50.230Z,6.11
2023-03-14T06:39:16.662Z,6.17
2023-03-14T06:41:43.082Z,6.15
2023-03-14T06:44:09.638Z,6.09
2023-03-14T06:46:36.046Z,6.09
2023-03-14T06:49:02.427Z,6.07
2023-03-14T06:51:28.862Z,6.11
2023-03-14T06:53:55.233Z,6.05
2023-03-14T06:56:21.637Z,5.99
2023-03-14T06:58:50.256Z,6.03
2023-03-14T07:01:16.896Z,5.97
2023-03-14T07:03:43.299Z,6.08
2023-03-14T07:06:09.730Z,6.21
2023-03-14T07:08:36.107Z,6.33
2023-03-14T07:11:02.508Z,6.31
2023-03-14T07:13:28.899Z,6.25
2023-03-14T07:15:55.327Z,6.20
2023-03-14T07:18:21.713Z,6.15
2023-03-14T07:20:49.837Z,6.27
2023-03-14T07:23:17.721Z,6.31
2023-03-14T07:25:44.127Z,6.36
2023-03-14T07:28:10.491Z,6.28
2023-03-14T07:30:36.873Z,6.08
2023-03-14T07:33:03.340Z,5.96
2023-03-14T07:35:29.765Z,5.93
2023-03-14T07:37:56.176Z,5.82
2023-03-14T07:40:22.557Z,5.84
2023-03-14T07:42:48.952Z,5.79
2023-03-14T07:45:15.362Z,5.85
2023-03-14T07:47:41.771Z,5.89
2023-03-14T07:50:08.169Z,5.86
2023-03-14T07:52:34.552Z,5.86
2023-03-14T07:55:00.958Z,5.78
2023-03-14T07:57:27.387Z,5.86
2023-03-14T07:59:53.808Z,5.90
2023-03-14T08:02:20.239Z,5.99
2023-03-14T08:04:46.691Z,5.97
2023-03-14T08:07:13.069Z,6.04
2023-03-14T08:09:39.452Z,6.12
2023-03-14T08:12:05.820Z,6.20
2023-03-14T08:14:32.183Z,6.19
2023-03-14T08:16:58.581Z,6.17
2023-03-14T08:19:25.010Z,6.12
2023-03-14T08:21:51.439Z,6.12
2023-03-14T08:24:17.955Z,6.02
2023-03-14T08:26:44.363Z,5.94
2023-03-14T08:29:10.744Z,5.88
2023-03-14T08:31:37.254Z,5.99
2023-03-14T08:34:03.724Z,5.99
2023-03-14T08:36:30.190Z,5.94
2023-03-14T08:38:56.692Z,5.87
2023-03-14T08:41:23.131Z,5.77
2023-03-14T08:43:49.533Z,5.67
2023-03-14T08:46:15.921Z,5.67
2023-03-14T08:48:42.300Z,5.75
2023-03-14T08:51:08.697Z,6.05
2023-03-14T08:53:35.130Z,6.33
2023-03-14T08:56:01.526Z,6.31
2023-03-14T08:58:27.951Z,6.46
2023-03-14T09:00:54.353Z,6.43
2023-03-14T09:03:20.819Z,6.30
2023-03-14T09:05:47.261Z,6.30
2023-03-14T09:08:13.686Z,6.26
2023-03-14T09:10:40.093Z,6.16
2023-03-14T09:13:06.486Z,5.98
2023-03-14T09:15:32.918Z,5.91
2023-03-14T09:17:59.323Z,5.83
2023-03-14T09:20:25.747Z,5.67
2023-03-14T09:22:52.147Z,5.59
2023-03-14T09:25:18.591Z,5.55
2023-03-14T09:27:44.978Z,5.44
2023-03-14T09:30:11.399Z,5.34
2023-03-14T09:32:37.834Z,5.19
2023-03-14T09:35:04.282Z,5.09
2023-03-14T09:37:30.658Z,5.11
2023-03-14T09:39:57.083Z,5.05
2023-03-14T09:42:23.519Z,5.10
2023-03-14T09:44:49.920Z,5.07
2023-03-14T09:47:16.378Z,5.05
2023-03-14T09:49:42.776Z,5.12
2023-03-14T09:52:09.188Z,5.30
2023-03-14T09:54:35.571Z,5.42
2023-03-14T09:57:01.954Z,5.40
2023-03-14T09:59:28.389Z,5.33
2023-03-14T10:01:54.815Z,5.27
2023-03-14T10:04:21.242Z,5.23
2023-03-14T10:06:47.704Z,5.30
2023-03-14T10:09:14.134Z,5.42
2023-03-14T10:11:40.522Z,5.53
2023-03-14T10:14:06.943Z,5.49
2023-03-14T10:16:33.317Z,5.49
2023-03-14T10:18:59.746Z,5.32
2023-03-14T10:21:26.131Z,5.40
2023-03-14T10:23:52.511Z,5.46
2023-03-14T10:26:18.915Z,5.59
2023-03-14T10:28:45.321Z,5.64
2023-03-14T10:31:11.870Z,5.53
2023-03-14T10:33:38.287Z,5.45
2023-03-14T10:36:04.793Z,5.35
2023-03-14T10:38:31.225Z,5.18
2023-03-14T10:40:57.612Z,5.09
2023-03-14T10:43:24.031Z,4.85
2023-03-14T10:45:50.438Z,4.86
2023-03-14T10:48:16.827Z,5.00
2023-03-14T10:50:43.273Z,5.19
2023-03-14T10:53:09.689Z,5.19
2023-03-14T10:55:36.616Z,5.59
2023-03-14T10:58:03.223Z,5.84
2023-03-14T11:00:30.811Z,5.96
2023-03-14T11:02:57.374Z,6.04
2023-03-14T11:05:23.820Z,6.14
2023-03-14T11:07:52.420Z,6.44
2023-03-14T11:10:19.151Z,6.69
2023-03-14T11:12:46.758Z,6.80
2023-03-14T11:15:13.371Z,6.72
2023-03-14T11:17:39.937Z,6.79
2023-03-14T11:20:06.352Z,6.61
2023-03-14T11:22:32.735Z,6.41
2023-03-14T11:24:59.125Z,6.40
2023-03-14T11:27:25.543Z,6.41
2023-03-14T11:29:51.950Z,6.41
2023-03-14T11:32:18.349Z,6.33
2023-03-14T11:34:44.774Z,6.27
2023-03-14T11:37:11.156Z,6.23
2023-03-14T11:39:37.624Z,6.29
2023-03-14T11:42:05.725Z,6.54
2023-03-14T11:44:32.245Z,6.74
2023-03-14T11:47:00.565Z,6.98
2023-03-14T11:49:27.145Z,6.89
2023-03-14T11:51:53.539Z,6.81
2023-03-14T11:54:19.949Z,6.64
2023-03-14T11:56:46.597Z,6.64
2023-03-14T11:59:13.000Z,6.60
2023-03-14T12:01:39.724Z,6.54
2023-03-14T12:04:07.233Z,6.55
2023-03-14T12:06:33.676Z,6.41
2023-03-14T12:09:00.373Z,6.29
2023-03-14T12:11:28.982Z,6.19
2023-03-14T12:13:56.548Z,6.19
2023-03-14T12:16:23.152Z,6.22
2023-03-14T12:18:49.604Z,6.33
2023-03-14T12:21:16.021Z,6.48
2023-03-14T12:23:42.999Z,6.56
2023-03-14T12:26:09.757Z,6.75
2023-03-14T12:28:36.261Z,6.92
2023-03-14T12:31:02.633Z,6.98
2023-03-14T12:33:29.010Z,6.93
2023-03-14T12:35:55.478Z,7.04
2023-03-14T12:38:22.136Z,7.19
2023-03-14T12:40:48.531Z,7.43
2023-03-14T12:43:14.926Z,7.74
2023-03-14T12:45:42.687Z,7.94
2023-03-14T12:48:10.612Z,8.23
2023-03-14T12:50:37.016Z,8.58
2023-03-14T12:53:03.526Z,9.00
2023-03-14T12:55:29.970Z,9.10
2023-03-14T12:57:56.371Z,9.23
2023-03-14T13:00:22.737Z,9.27
2023-03-14T13:02:49.149Z,9.28
2023-03-14T13:05:15.574Z,9.02
2023-03-14T13:07:41.969Z,8.93
2023-03-14T13:12:39.681Z,9.65
2023-03-14T13:15:06.078Z,9.65
2023-03-14T13:17:36.365Z,9.70
2023-03-14T13:20:03.808Z,9.77
2023-03-14T13:22:30.249Z,9.57
2023-03-14T13:24:56.680Z,9.33
2023-03-14T13:27:23.083Z,8.47
2023-03-14T13:29:49.753Z,8.30
2023-03-14T13:32:16.140Z,8.15
2023-03-14T13:34:42.652Z,7.81
2023-03-14T13:37:09.106Z,7.46
2023-03-14T13:39:35.548Z,7.70
2023-03-14T13:42:01.970Z,7.87
2023-03-14T13:44:28.407Z,7.64
2023-03-14T13:46:54.820Z,7.43
2023-03-14T13:49:21.230Z,7.39
2023-03-14T13:51:47.629Z,8.06
2023-03-14T13:54:14.025Z,7.80
2023-03-14T13:56:41.787Z,7.81
2023-03-14T13:59:08.216Z,7.88
2023-03-14T14:01:34.680Z,8.07
2023-03-14T14:04:01.266Z,8.36
2023-03-14T14:06:27.730Z,8.64
2023-03-14T14:08:54.114Z,8.77
2023-03-14T14:11:20.502Z,9.18
2023-03-14T14:13:47.010Z,9.22
2023-03-14T14:16:13.604Z,9.67
2023-03-14T14:18:40.095Z,9.81
2023-03-14T14:21:06.501Z,9.56
2023-03-14T14:23:32.896Z,9.44
2023-03-14T14:25:59.296Z,9.48
2023-03-14T14:28:25.724Z,9.31
2023-03-14T14:30:52.150Z,9.00
2023-03-14T14:33:18.663Z,8.95
2023-03-14T14:35:45.068Z,9.11
2023-03-14T14:38:11.558Z,9.00
2023-03-14T14:40:37.945Z,8.73
2023-03-14T14:43:04.344Z,8.58
2023-03-14T14:45:30.764Z,8.42
2023-03-14T14:47:57.163Z,8.09
2023-03-14T14:50:23.564Z,8.03
2023-03-14T14:52:49.949Z,7.95
2023-03-14T14:55:16.352Z,7.59
2023-03-14T14:57:42.740Z,7.19
2023-03-14T15:00:09.116Z,6.60
2023-03-14T15:02:35.534Z,6.56
2023-03-14T15:05:01.969Z,6.45
2023-03-14T15:07:28.439Z,6.08
2023-03-14T15:09:54.862Z,5.67
2023-03-14T15:12:21.287Z,5.67
2023-03-14T15:14:47.717Z,5.52
2023-03-14T15:17:14.123Z,5.72
2023-03-14T15:19:40.547Z,6.13
2023-03-14T15:22:06.969Z,6.34
2023-03-14T15:24:33.404Z,6.23
2023-03-14T15:26:59.803Z,6.03
2023-03-14T15:29:26.196Z,6.14
2023-03-14T15:31:52.668Z,6.18
2023-03-14T15:34:19.175Z,6.16
2023-03-14T15:36:45.626Z,6.14
2023-03-14T15:39:12.035Z,6.08
2023-03-14T15:41:38.441Z,5.94
2023-03-14T15:44:04.860Z,5.91
2023-03-14T15:46:31.472Z,5.85
2023-03-14T15:48:57.894Z,5.77
2023-03-14T15:51:24.293Z,5.75
2023-03-14T15:53:50.721Z,5.78
2023-03-14T15:56:17.125Z,5.81
2023-03-14T15:58:43.730Z,5.92
2023-03-14T16:01:10.173Z,6.05
2023-03-14T16:03:36.587Z,6.28
2023-03-14T16:06:02.977Z,6.18
2023-03-14T16:08:29.398Z,6.19
2023-03-14T16:10:55.806Z,6.23
2023-03-14T16:13:22.251Z,6.45
2023-03-14T16:15:48.651Z,6.56
2023-03-14T16:18:21.532Z,6.63
2023-03-14T16:20:49.336Z,6.63
2023-03-14T16:23:17.056Z,6.34
2023-03-14T16:25:43.447Z,5.93
2023-03-14T16:28:11.463Z,6.03
2023-03-14T16:30:38.084Z,5.61
2023-03-14T16:33:06.218Z,5.26
2023-03-14T16:35:34.254Z,5.12
2023-03-14T16:38:00.662Z,4.96
2023-03-14T16:40:27.095Z,4.96
2023-03-14T16:43:14.569Z,4.91
2023-03-14T16:45:40.001Z,4.90
2023-03-14T16:48:06.474Z,4.69
2023-03-14T16:50:32.878Z,4.60
2023-03-14T16:52:59.288Z,4.42
2023-03-14T16:55:25.696Z,4.30
2023-03-14T16:57:52.109Z,4.14
2023-03-14T17:00:18.544Z,4.11
2023-03-14T17:02:44.927Z,4.28
2023-03-14T17:05:11.350Z,4.44
2023-03-14T17:07:37.754Z,4.63
2023-03-14T17:10:04.167Z,4.75
2023-03-14T17:12:30.581Z,4.79
2023-03-14T17:14:56.967Z,4.78
2023-03-14T17:17:23.377Z,4.79
2023-03-14T17:19:49.809Z,4.74
2023-03-14T17:22:23.962Z,4.50
2023-03-14T17:24:51.078Z,4.15
2023-03-14T17:27:17.491Z,3.91
2023-03-14T17:29:44.232Z,3.58
2023-03-14T17:32:10.677Z,3.30
2023-03-14T17:34:37.071Z,3.16
2023-03-14T17:37:03.483Z,3.15
2023-03-14T17:39:29.997Z,3.16
2023-03-14T17:41:56.400Z,3.15
2023-03-14T17:44:22.793Z,3.17
2023-03-14T17:46:49.288Z,3.25
2023-03-14T17:49:15.711Z,3.21
2023-03-14T17:51:42.158Z,3.24
2023-03-14T17:54:08.587Z,3.26
2023-03-14T17:56:35.026Z,3.18
2023-03-14T17:59:01.438Z,3.20
2023-03-14T18:01:27.996Z,3.30
2023-03-14T18:03:54.519Z,3.39
2023-03-14T18:06:20.953Z,3.43
2023-03-14T18:08:47.454Z,3.43
2023-03-14T18:11:13.944Z,3.39
2023-03-14T18:13:40.343Z,3.38
2023-03-14T18:16:06.728Z,3.38
2023-03-14T18:18:33.159Z,3.38
2023-03-14T18:20:59.548Z,3.38
2023-03-14T18:23:25.949Z,3.41
2023-03-14T18:25:52.346Z,3.41
2023-03-14T18:28:18.750Z,3.31
2023-03-14T18:30:45.134Z,3.34
2023-03-14T18:33:11.527Z,3.35
2023-03-14T18:35:38.023Z,3.38
2023-03-14T18:38:04.510Z,3.46
2023-03-14T18:40:30.935Z,3.45
2023-03-14T18:42:57.403Z,3.49
2023-03-14T18:45:23.783Z,3.60
2023-03-14T18:47:50.242Z,3.59
2023-03-14T18:50:16.676Z,3.58
2023-03-14T18:52:43.095Z,3.58
2023-03-14T18:55:09.515Z,3.57
2023-03-14T18:57:35.909Z,3.62
2023-03-14T19:00:02.325Z,3.60
2023-03-14T19:02:28.794Z,3.63
2023-03-14T19:04:55.259Z,3.66
2023-03-14T19:07:21.667Z,3.62
2023-03-14T19:09:48.045Z,3.65
2023-03-14T19:12:14.443Z,3.64
2023-03-14T19:14:40.965Z,3.65
2023-03-14T19:17:07.336Z,3.65
2023-03-14T19:19:33.735Z,3.65
2023-03-14T19:22:00.159Z,3.66
2023-03-14T19:24:26.582Z,3.65
2023-03-14T19:26:54.767Z,3.70
2023-03-14T19:29:21.258Z,3.73
2023-03-14T19:31:47.685Z,3.71
2023-03-14T19:34:14.146Z,3.74
2023-03-14T19:36:40.536Z,3.76
2023-03-14T19:39:06.961Z,3.78
2023-03-14T19:41:33.360Z,3.74
2023-03-14T19:43:59.775Z,3.80
2023-03-14T19:46:26.251Z,3.85
2023-03-14T19:48:52.715Z,3.91
2023-03-14T19:51:19.111Z,3.93
2023-03-14T19:53:45.537Z,3.96
2023-03-14T19:56:11.922Z,4.05
2023-03-14T19:58:38.330Z,4.07
2023-03-14T20:01:04.769Z,4.05
2023-03-14T20:03:31.173Z,4.08
2023-03-14T20:05:57.599Z,4.06
2023-03-14T20:08:24.023Z,4.03
2023-03-14T20:10:50.464Z,4.02
2023-03-14T20:13:21.713Z,4.04
2023-03-14T20:15:48.875Z,4.01
2023-03-14T20:18:15.322Z,3.94
2023-03-14T20:20:41.786Z,3.97
2023-03-14T20:23:08.211Z,4.00
2023-03-14T20:25:34.655Z,3.96
2023-03-14T20:28:01.070Z,3.95
2023-03-14T20:30:27.483Z,3.92
2023-03-14T20:32:53.916Z,3.87
2023-03-14T20:35:20.526Z,3.90
2023-03-14T20:37:46.910Z,3.90
2023-03-14T20:40:13.329Z,3.91
2023-03-14T20:42:39.767Z,3.92
2023-03-14T20:45:06.167Z,3.94
2023-03-14T20:47:32.573Z,3.95
2023-03-14T20:49:59.021Z,3.99
2023-03-14T20:52:25.429Z,3.97
2023-03-14T20:54:51.811Z,4.01
2023-03-14T20:57:18.230Z,4.06
2023-03-14T20:59:44.659Z,4.10
2023-03-14T21:02:11.083Z,4.16
2023-03-14T21:04:37.587Z,4.23
2023-03-14T21:07:04.098Z,4.27
2023-03-14T21:09:30.515Z,4.28
2023-03-14T21:11:56.902Z,4.30
2023-03-14T21:14:23.304Z,4.21
2023-03-14T21:16:49.738Z,4.21
2023-03-14T21:19:16.147Z,4.24
2023-03-14T21:21:42.554Z,4.23
2023-03-14T21:24:08.933Z,4.30
2023-03-14T21:26:35.358Z,4.35
2023-03-14T21:29:01.806Z,4.47
2023-03-14T21:31:28.441Z,4.49
2023-03-14T21:33:54.855Z,4.48
2023-03-14T21:36:21.264Z,4.24
2023-03-14T21:38:47.662Z,3.83
2023-03-14T21:41:14.084Z,3.65
2023-03-14T21:43:40.803Z,3.56
2023-03-14T21:46:07.183Z,3.38
2023-03-14T21:48:33.604Z,3.42
2023-03-14T21:50:59.991Z,3.47
2023-03-14T21:53:26.415Z,3.34
2023-03-14T21:55:52.815Z,3.25
2023-03-14T21:58:19.235Z,3.12
2023-03-14T22:00:45.697Z,3.08
2023-03-14T22:03:13.617Z,3.15
2023-03-14T22:05:40.274Z,3.01
2023-03-14T22:08:06.817Z,2.95
2023-03-14T22:10:33.234Z,2.85
2023-03-14T22:12:59.612Z,2.78
2023-03-14T22:15:26.031Z,2.79
2023-03-14T22:17:52.420Z,2.68
2023-03-14T22:20:18.807Z,2.71
2023-03-14T22:22:45.215Z,2.70
2023-03-14T22:25:11.609Z,2.68
2023-03-14T22:27:38.080Z,2.69
2023-03-14T22:30:04.506Z,2.77
2023-03-14T22:32:31.859Z,2.77
2023-03-14T22:34:58.273Z,2.77
2023-03-14T22:37:24.674Z,2.70
2023-03-14T22:39:51.089Z,2.69
2023-03-14T22:42:17.481Z,2.70
2023-03-14T22:44:43.975Z,2.76
2023-03-14T22:47:10.419Z,2.81
2023-03-14T22:49:36.812Z,2.73
2023-03-14T22:52:03.210Z,2.67
2023-03-14T22:54:29.580Z,2.67
2023-03-14T22:56:56.838Z,2.73
2023-03-14T22:59:23.307Z,2.71
2023-03-14T23:01:49.963Z,2.78
2023-03-14T23:04:16.384Z,2.73
2023-03-14T23:06:43.169Z,2.72
2023-03-14T23:09:10.744Z,2.72
2023-03-14T23:11:39.338Z,2.77
2023-03-14T23:14:05.735Z,2.70
2023-03-14T23:16:39.873Z,2.65
2023-03-14T23:19:06.696Z,2.62
2023-03-14T23:21:33.063Z,2.68
2023-03-14T23:23:59.439Z,2.77
2023-03-14T23:26:25.825Z,2.80
2023-03-14T23:28:52.208Z,2.76
2023-03-14T23:31:18.637Z,2.67
2023-03-14T23:33:45.034Z,2.64
2023-03-14T23:36:11.447Z,2.48
2023-03-14T23:38:37.836Z,2.41
2023-03-14T23:41:04.250Z,2.46
2023-03-14T23:43:30.622Z,2.50
2023-03-14T23:45:57.090Z,2.60
2023-03-14T23:48:23.511Z,2.44
2023-03-14T23:50:49.893Z,2.46
2023-03-14T23:53:16.287Z,2.59
2023-03-14T23:55:42.722Z,2.67
2023-03-14T23:58:09.101Z,2.72
